Time;durP1;ratioP1;P1;durP2;ratioP2;P2;SDS_P1;SDS_P2;PMS_P1;PMS_P2;Temp;Humidity;BMP_temperature;BMP_pressure;BME280_temperature;BME280_humidity;BME280_pressure;Samples;Min_cycle;Max_cycle;Signal;HPM_P1;HPM_P2
2023/01/31 00:01:06;;;;;;;11.23;5.00;;;;;;;-0.16;79.39;94168.91;5110378;28;20205;-74
2023/01/31 00:03:32;;;;;;;14.20;5.53;;;;;;;-0.34;79.74;94172.16;5096341;28;20751;-74
2023/01/31 00:06:09;;;;;;;10.48;5.15;;;;;;;-0.56;80.91;94179.69;5109639;28;20255;-74
2023/01/31 00:08:36;;;;;;;12.63;5.90;;;;;;;-0.77;81.93;94189.53;5110174;28;20243;-74
2023/01/31 00:11:03;;;;;;;14.60;5.63;;;;;;;-0.68;81.64;94187.16;5110043;28;20274;-73
2023/01/31 00:13:29;;;;;;;7.15;3.55;;;;;;;-0.79;81.92;94184.47;5110307;28;20198;-74
2023/01/31 00:15:56;;;;;;;8.77;3.40;;;;;;;-0.81;81.51;94178.63;5110097;28;20194;-74
2023/01/31 00:18:23;;;;;;;15.68;4.55;;;;;;;-0.72;80.78;94178.91;5110193;28;20346;-74
2023/01/31 00:20:50;;;;;;;36.28;7.75;;;;;;;-0.74;79.73;94179.16;5108062;28;20197;-74
2023/01/31 00:23:18;;;;;;;12.27;4.40;;;;;;;-0.82;79.88;94177.03;5098091;28;20239;-74
2023/01/31 00:25:45;;;;;;;17.98;5.00;;;;;;;-0.83;80.31;94164.81;5110132;28;20213;-75
2023/01/31 00:28:12;;;;;;;4.05;3.30;;;;;;;-0.88;79.68;94164.81;5110348;28;20205;-75
2023/01/31 00:30:39;;;;;;;6.97;3.08;;;;;;;-0.86;79.66;94170.66;5109536;28;20213;-75
2023/01/31 00:33:06;;;;;;;9.73;4.15;;;;;;;-0.90;80.00;94185.56;5109894;28;20201;-75
2023/01/31 00:35:32;;;;;;;13.25;4.03;;;;;;;-0.77;81.13;94179.69;5109663;28;20242;-74
2023/01/31 00:37:59;;;;;;;8.93;4.05;;;;;;;-0.57;81.50;94189.50;5109728;28;20206;-74
2023/01/31 00:40:27;;;;;;;7.28;3.92;;;;;;;-0.38;80.63;94192.38;5109961;28;20194;-75
2023/01/31 00:42:54;;;;;;;11.50;3.75;;;;;;;-0.29;80.18;94190.78;5109717;28;20254;-74
2023/01/31 00:45:21;;;;;;;15.05;5.85;;;;;;;-0.24;80.85;94182.75;5110119;28;20201;-74
2023/01/31 00:47:47;;;;;;;8.18;4.00;;;;;;;-0.01;79.45;94186.69;5110017;28;20205;-74
2023/01/31 00:50:15;;;;;;;11.02;5.32;;;;;;;0.04;79.16;94177.88;5108629;28;20193;-74
2023/01/31 00:52:42;;;;;;;9.88;4.72;;;;;;;0.07;80.03;94187.97;5108381;28;20869;-75
2023/01/31 00:55:09;;;;;;;10.93;5.53;;;;;;;-0.05;79.90;94181.09;5109352;28;20274;-74
2023/01/31 00:57:37;;;;;;;20.77;9.15;;;;;;;-0.10;79.67;94172.34;5109280;28;20247;-73
2023/01/31 01:00:05;;;;;;;10.38;5.90;;;;;;;0.02;79.19;94169.34;5108991;28;20202;-73
2023/01/31 01:02:32;;;;;;;16.38;5.07;;;;;;;0.25;78.26;94168.72;5108889;28;20646;-74
2023/01/31 01:04:59;;;;;;;13.32;6.40;;;;;;;0.39;78.55;94156.41;5108425;28;20262;-74
2023/01/31 01:07:26;;;;;;;7.97;3.72;;;;;;;0.34;78.50;94167.06;5108802;28;20206;-74
2023/01/31 01:09:53;;;;;;;8.93;4.15;;;;;;;0.04;79.42;94173.34;5108697;28;20626;-74
2023/01/31 01:12:20;;;;;;;4.28;2.53;;;;;;;-0.26;79.02;94190.22;5109266;28;20643;-74
2023/01/31 01:14:48;;;;;;;12.68;5.78;;;;;;;-0.36;80.30;94190.25;5109103;28;20225;-75
2023/01/31 01:17:14;;;;;;;3.40;1.92;;;;;;;-0.47;79.65;94202.00;5109259;28;20202;-74
2023/01/31 01:19:41;;;;;;;29.75;11.05;;;;;;;-0.39;79.88;94204.88;5108451;28;21029;-74
2023/01/31 01:22:08;;;;;;;12.00;4.85;;;;;;;-0.38;80.59;94193.19;5108665;28;20202;-74
2023/01/31 01:24:35;;;;;;;8.02;3.28;;;;;;;-0.17;78.09;94162.00;5088333;28;20665;-75
2023/01/31 01:27:03;;;;;;;7.05;3.42;;;;;;;-0.14;76.34;94182.75;5102318;28;20691;-75
2023/01/31 01:29:30;;;;;;;5.22;2.90;;;;;;;-0.04;77.22;94165.94;5108706;28;20194;-74
2023/01/31 01:31:58;;;;;;;9.70;4.50;;;;;;;-0.12;77.89;94169.16;5108813;28;20242;-74
2023/01/31 01:34:25;;;;;;;9.93;3.38;;;;;;;-0.09;76.90;94161.41;5108689;28;20258;-75
2023/01/31 01:36:52;;;;;;;7.43;2.83;;;;;;;0.03;72.78;94144.31;5108325;28;20653;-74
2023/01/31 01:39:18;;;;;;;7.90;3.03;;;;;;;0.18;70.74;94138.94;5108296;28;20209;-75
2023/01/31 01:41:46;;;;;;;7.93;3.15;;;;;;;0.60;65.99;94147.19;5108373;28;20201;-75
2023/01/31 01:44:55;;;;;;;5.28;2.45;;;;;;;1.15;59.62;94144.38;5108525;28;20214;-74
2023/01/31 01:47:33;;;;;;;4.75;2.05;;;;;;;1.26;58.72;94141.31;5085194;28;20958;-75
2023/01/31 01:50:06;;;;;;;4.75;1.73;;;;;;;1.37;58.12;94142.81;5108030;28;20667;-75
2023/01/31 01:52:37;;;;;;;5.18;1.55;;;;;;;1.41;58.12;94146.50;5108403;28;20194;-74
2023/01/31 01:55:11;;;;;;;2.65;1.70;;;;;;;1.55;57.57;94153.84;5108200;28;20235;-74
2023/01/31 01:57:44;;;;;;;1.42;1.33;;;;;;;1.59;58.28;94138.88;5108258;28;20192;-76
2023/01/31 02:00:15;;;;;;;2.15;1.15;;;;;;;1.52;58.60;94149.06;5107933;28;20190;-74
2023/01/31 02:02:45;;;;;;;6.30;1.65;;;;;;;1.55;58.23;94149.31;5107979;28;20209;-75
2023/01/31 02:05:15;;;;;;;3.35;1.52;;;;;;;1.54;57.96;94130.91;5094236;28;20206;-74
2023/01/31 02:07:42;;;;;;;2.55;1.20;;;;;;;1.50;58.53;94129.91;5108090;28;20189;-74
2023/01/31 02:10:13;;;;;;;2.60;1.67;;;;;;;1.60;56.34;94141.25;5107480;28;20224;-78
2023/01/31 02:12:41;;;;;;;3.05;1.25;;;;;;;1.64;56.02;94142.25;5107664;28;20556;-74
2023/01/31 02:15:09;;;;;;;1.13;0.88;;;;;;;1.57;57.08;94151.69;5108373;28;20278;-76
2023/01/31 02:17:36;;;;;;;1.85;1.42;;;;;;;1.54;56.71;94149.59;5108636;28;20275;-73
2023/01/31 02:20:16;;;;;;;3.20;1.88;;;;;;;1.47;57.09;94151.81;5108176;28;20660;-75
2023/01/31 02:22:48;;;;;;;3.08;1.48;;;;;;;1.45;56.87;94156.63;5108217;28;20715;-76
2023/01/31 02:25:44;;;;;;;4.43;1.92;;;;;;;1.39;58.35;94158.53;5108326;28;20255;-73
2023/01/31 02:28:41;;;;;;;6.00;2.00;;;;;;;1.30;57.76;94152.22;5096077;28;20198;-74
2023/01/31 02:31:50;;;;;;;3.05;1.63;;;;;;;1.27;56.91;94142.91;5107896;28;20193;-74
2023/01/31 02:34:28;;;;;;;1.30;0.85;;;;;;;1.21;57.77;94141.38;5070352;28;20194;-75
2023/01/31 02:37:08;;;;;;;4.78;2.22;;;;;;;1.29;57.05;94146.09;5107694;28;20294;-74
2023/01/31 02:39:41;;;;;;;3.95;1.05;;;;;;;1.25;56.69;94145.06;5108433;28;20186;-74
2023/01/31 02:42:28;;;;;;;9.88;1.65;;;;;;;1.22;57.56;94153.66;5107855;28;20198;-74
2023/01/31 02:45:03;;;;;;;2.65;1.65;;;;;;;1.26;56.98;94151.19;5107935;28;20202;-73
2023/01/31 02:47:55;;;;;;;1.45;1.30;;;;;;;1.25;58.07;94147.72;5095020;28;20239;-75
2023/01/31 02:50:29;;;;;;;1.92;1.55;;;;;;;1.24;59.05;94151.47;5103929;28;20251;-74
2023/01/31 02:53:02;;;;;;;2.78;1.40;;;;;;;1.19;59.55;94162.19;5107474;28;20194;-74
2023/01/31 02:58:22;;;;;;;3.60;2.15;;;;;;;1.18;60.31;94171.28;5107703;28;20324;-74
2023/01/31 03:00:50;;;;;;;5.53;1.67;;;;;;;1.20;60.63;94182.47;5107838;28;20197;-74
2023/01/31 03:03:21;;;;;;;2.45;1.50;;;;;;;1.25;60.66;94187.75;5107266;28;20715;-74
2023/01/31 03:06:11;;;;;;;6.38;2.22;;;;;;;1.28;60.71;94197.06;5095339;28;20272;-74
2023/01/31 03:08:42;;;;;;;2.33;1.77;;;;;;;1.27;61.39;94198.94;5095991;28;20695;-75
2023/01/31 03:11:10;;;;;;;4.20;2.05;;;;;;;1.22;62.10;94208.88;5107475;28;20197;-74
2023/01/31 03:13:48;;;;;;;6.05;2.25;;;;;;;1.18;63.33;94223.81;5107532;28;20263;-74
2023/01/31 03:19:16;;;;;;;3.70;2.65;;;;;;;1.14;64.52;94218.25;5111370;28;20291;-74
2023/01/31 03:21:47;;;;;;;7.00;2.30;;;;;;;1.15;65.04;94214.50;5101767;28;20206;-74
2023/01/31 03:24:17;;;;;;;2.67;1.85;;;;;;;1.13;65.25;94216.66;5107753;28;20209;-74
2023/01/31 03:26:44;;;;;;;2.80;1.48;;;;;;;1.07;65.68;94220.44;5111143;28;20746;-75
2023/01/31 03:29:15;;;;;;;4.40;2.10;;;;;;;1.07;66.80;94223.13;5111200;28;20205;-75
2023/01/31 03:31:46;;;;;;;5.28;2.33;;;;;;;1.00;67.86;94217.28;5110439;28;20206;-75
2023/01/31 03:34:15;;;;;;;5.95;2.00;;;;;;;0.93;68.98;94214.94;5110407;28;20624;-75
2023/01/31 03:36:51;;;;;;;4.75;2.25;;;;;;;0.92;69.55;94224.03;5109978;28;20241;-73
2023/01/31 03:39:29;;;;;;;5.65;2.67;;;;;;;0.95;70.19;94226.13;5110899;28;20198;-74
2023/01/31 03:42:06;;;;;;;4.90;2.00;;;;;;;0.91;70.79;94232.28;5111057;28;20280;-75
2023/01/31 03:44:40;;;;;;;3.20;1.75;;;;;;;0.91;71.40;94249.09;5110486;28;20501;-75
2023/01/31 03:47:14;;;;;;;4.90;2.50;;;;;;;0.90;71.30;94249.34;5110634;28;20193;-75
2023/01/31 03:49:43;;;;;;;4.43;2.65;;;;;;;0.87;72.11;94247.25;5110406;28;20190;-75
2023/01/31 03:52:16;;;;;;;3.10;1.50;;;;;;;0.83;72.72;94249.66;5110046;28;20198;-75
2023/01/31 03:54:49;;;;;;;5.82;3.13;;;;;;;0.77;73.06;94255.31;5110064;28;20239;-74
2023/01/31 03:57:21;;;;;;;6.75;2.20;;;;;;;0.74;74.03;94261.19;5110675;28;20193;-73
2023/01/31 03:59:56;;;;;;;6.90;2.60;;;;;;;0.70;74.40;94261.72;5110559;28;20313;-74
2023/01/31 04:02:30;;;;;;;2.38;1.73;;;;;;;0.64;74.91;94252.16;5110342;28;20341;-76
2023/01/31 04:05:05;;;;;;;4.90;2.00;;;;;;;0.62;75.63;94261.50;5110434;28;20204;-74
2023/01/31 04:07:34;;;;;;;2.38;1.88;;;;;;;0.65;75.23;94259.09;5110348;28;20270;-75
2023/01/31 04:10:00;;;;;;;2.72;1.88;;;;;;;0.61;75.76;94263.38;5110123;28;20218;-75
2023/01/31 04:12:27;;;;;;;8.75;3.20;;;;;;;0.68;76.20;94258.53;5104738;28;20216;-74
2023/01/31 04:14:54;;;;;;;3.58;2.13;;;;;;;0.60;76.05;94272.44;5108700;28;20206;-74
2023/01/31 04:17:20;;;;;;;4.80;1.58;;;;;;;0.65;76.67;94272.41;5109023;28;20613;-74
2023/01/31 04:19:47;;;;;;;5.70;2.53;;;;;;;0.65;77.23;94269.75;5105217;28;20640;-73
2023/01/31 04:22:14;;;;;;;5.55;3.00;;;;;;;0.63;77.33;94285.22;5109538;28;20247;-75
2023/01/31 04:24:42;;;;;;;8.55;4.25;;;;;;;0.54;78.06;94284.22;5095963;28;20244;-75
2023/01/31 04:27:09;;;;;;;6.75;2.63;;;;;;;0.50;78.13;94277.81;5099170;28;20199;-76
2023/01/31 04:29:35;;;;;;;5.47;2.72;;;;;;;0.56;78.59;94287.38;5103730;28;20243;-75
2023/01/31 04:32:02;;;;;;;2.97;2.05;;;;;;;0.54;78.28;94297.53;5105589;28;20191;-74
2023/01/31 04:34:29;;;;;;;4.65;2.00;;;;;;;0.49;78.79;94292.22;5107290;28;20271;-75
2023/01/31 04:36:56;;;;;;;7.53;2.88;;;;;;;0.47;79.25;94289.00;5107608;28;20866;-75
2023/01/31 04:39:22;;;;;;;11.90;4.45;;;;;;;0.37;79.34;94305.03;5104102;28;20247;-74
2023/01/31 04:41:50;;;;;;;6.88;3.30;;;;;;;0.27;80.09;94305.09;5105055;28;20202;-75
2023/01/31 04:44:17;;;;;;;5.95;3.03;;;;;;;0.22;80.13;94305.88;5102174;28;20637;-76
2023/01/31 04:46:45;;;;;;;2.80;2.20;;;;;;;0.27;80.58;94316.50;5108777;28;20197;-74
2023/01/31 04:49:12;;;;;;;6.35;2.40;;;;;;;0.28;80.72;94317.31;5106684;28;20197;-75
2023/01/31 04:51:39;;;;;;;6.55;2.92;;;;;;;0.28;81.02;94317.31;5106243;28;20205;-74
2023/01/31 04:54:05;;;;;;;4.72;2.88;;;;;;;0.25;80.95;94323.19;5105804;28;20198;-75
2023/01/31 04:56:32;;;;;;;8.63;1.85;;;;;;;0.26;81.25;94317.59;5108433;28;20221;-75
2023/01/31 04:59:00;;;;;;;7.50;3.15;;;;;;;0.23;81.24;94325.31;5101066;28;20270;-74
2023/01/31 05:01:28;;;;;;;8.48;2.67;;;;;;;0.21;81.68;94314.16;5106544;28;20290;-76
2023/01/31 05:03:54;;;;;;;2.60;1.50;;;;;;;0.27;81.38;94315.75;5103879;28;20198;-75
2023/01/31 05:06:21;;;;;;;2.72;1.70;;;;;;;0.28;81.12;94317.31;5107232;28;20201;-77
2023/01/31 05:08:48;;;;;;;4.10;2.35;;;;;;;0.27;80.81;94321.84;5099546;28;20276;-74
2023/01/31 05:11:15;;;;;;;6.78;3.42;;;;;;;0.28;81.05;94317.31;5105632;28;20201;-75
2023/01/31 05:13:42;;;;;;;5.68;2.08;;;;;;;0.32;80.66;94318.38;5108400;28;20213;-75
2023/01/31 05:16:12;;;;;;;6.60;2.42;;;;;;;0.27;80.93;94318.41;5105329;28;20264;-75
2023/01/31 05:18:39;;;;;;;2.05;1.58;;;;;;;0.34;81.30;94326.91;5107931;28;20289;-74
2023/01/31 05:21:07;;;;;;;4.32;1.67;;;;;;;0.28;81.18;94301.31;5105635;28;20201;-75
2023/01/31 05:23:34;;;;;;;3.67;2.20;;;;;;;0.33;80.90;94310.09;5108449;28;20194;-75
2023/01/31 05:26:00;;;;;;;4.80;3.60;;;;;;;0.32;80.77;94313.03;5108706;28;20197;-75
2023/01/31 05:28:27;;;;;;;4.85;2.40;;;;;;;0.39;80.91;94324.22;5103991;28;20613;-75
2023/01/31 05:30:54;;;;;;;3.67;2.20;;;;;;;0.42;80.61;94329.00;5108788;28;20198;-74
2023/01/31 05:33:22;;;;;;;5.50;4.03;;;;;;;0.42;80.56;94331.66;5108532;28;20201;-74
2023/01/31 05:35:49;;;;;;;3.22;2.28;;;;;;;0.48;79.92;94327.13;5107385;28;20287;-74
2023/01/31 05:38:16;;;;;;;4.47;2.22;;;;;;;0.47;79.90;94326.31;5108038;28;20668;-75
2023/01/31 05:40:42;;;;;;;4.45;2.30;;;;;;;0.39;79.95;94324.22;5107684;28;20194;-74
2023/01/31 05:43:09;;;;;;;2.67;2.13;;;;;;;0.47;79.60;94336.97;5108997;28;20220;-74
2023/01/31 05:45:36;;;;;;;5.72;2.00;;;;;;;0.39;80.31;94334.88;5108696;28;20210;-75
2023/01/31 05:48:03;;;;;;;6.68;3.58;;;;;;;0.40;79.85;94331.16;5108470;28;20656;-75
2023/01/31 05:50:31;;;;;;;4.82;2.33;;;;;;;0.37;80.25;94337.00;5088966;28;20271;-75
2023/01/31 05:53:01;;;;;;;3.90;2.00;;;;;;;0.51;80.05;94338.03;5101375;28;20201;-76
2023/01/31 05:55:29;;;;;;;3.45;2.47;;;;;;;0.54;79.71;94334.84;5095037;28;20608;-74
2023/01/31 05:57:56;;;;;;;3.15;2.28;;;;;;;0.50;80.02;94339.09;5108399;28;20197;-74
2023/01/31 06:00:23;;;;;;;5.78;2.42;;;;;;;0.53;79.91;94341.22;5108319;28;20197;-76
2023/01/31 06:02:50;;;;;;;9.15;2.58;;;;;;;0.56;79.61;94340.66;5108066;28;20309;-75
2023/01/31 06:05:17;;;;;;;8.45;2.22;;;;;;;0.61;79.57;94338.00;5107984;28;20733;-74
2023/01/31 06:07:45;;;;;;;4.20;2.08;;;;;;;0.68;79.44;94346.47;5108405;28;20306;-73
2023/01/31 06:10:14;;;;;;;4.05;2.90;;;;;;;0.69;79.40;94342.75;5100292;28;20230;-75
2023/01/31 06:12:41;;;;;;;3.92;2.05;;;;;;;0.70;79.78;94352.34;5102902;28;20288;-75
2023/01/31 06:15:08;;;;;;;8.63;3.15;;;;;;;0.82;79.22;94359.25;5108227;28;20271;-74
2023/01/31 06:17:35;;;;;;;4.82;2.03;;;;;;;0.84;79.27;94351.75;5107637;28;20237;-75
2023/01/31 06:20:02;;;;;;;6.57;2.80;;;;;;;0.84;79.04;94351.75;5107530;28;20194;-74
2023/01/31 06:22:29;;;;;;;3.55;1.60;;;;;;;0.92;79.35;94354.66;5108238;28;20322;-75
2023/01/31 06:24:57;;;;;;;4.65;2.28;;;;;;;0.93;79.47;94363.47;5108272;28;20250;-76
2023/01/31 06:27:23;;;;;;;4.22;2.95;;;;;;;0.91;78.98;94368.25;5107779;28;20828;-74
2023/01/31 06:29:50;;;;;;;3.90;1.65;;;;;;;0.99;79.21;94365.81;5108172;28;20259;-75
2023/01/31 06:32:17;;;;;;;4.50;1.95;;;;;;;1.05;79.49;94374.59;5108229;28;20217;-75
2023/01/31 06:34:44;;;;;;;4.60;2.28;;;;;;;1.17;80.24;94372.41;5108070;28;20254;-75
2023/01/31 06:37:10;;;;;;;5.82;2.67;;;;;;;1.28;79.43;94368.59;5107817;28;20249;-74
2023/01/31 06:39:37;;;;;;;6.63;1.67;;;;;;;1.34;78.31;94366.72;5108206;28;20206;-74
2023/01/31 06:42:06;;;;;;;3.67;2.97;;;;;;;1.48;78.29;94373.03;5108402;28;20201;-74
2023/01/31 06:44:33;;;;;;;5.95;3.08;;;;;;;1.40;78.27;94371.72;5108348;28;20278;-75
2023/01/31 06:47:00;;;;;;;3.40;2.17;;;;;;;1.41;78.20;94373.31;5108222;28;20284;-74
2023/01/31 06:49:27;;;;;;;2.45;1.77;;;;;;;1.38;78.18;94378.41;5107586;28;20202;-73
2023/01/31 06:51:53;;;;;;;6.28;2.92;;;;;;;1.31;78.89;94378.72;5111920;28;20234;-75
2023/01/31 06:54:20;;;;;;;4.78;2.72;;;;;;;1.35;78.95;94379.78;5100902;28;20206;-74
2023/01/31 06:56:47;;;;;;;3.53;1.88;;;;;;;1.43;78.85;94387.19;5096027;28;20286;-74
2023/01/31 06:59:15;;;;;;;13.13;3.58;;;;;;;1.29;78.88;94391.53;5111775;28;20201;-76
2023/01/31 07:01:42;;;;;;;7.70;2.40;;;;;;;1.87;84.69;94381.00;5097238;28;20206;-74
2023/01/31 07:04:08;;;;;;;6.60;4.13;;;;;;;1.69;79.48;94381.69;5102307;28;20209;-75
2023/01/31 07:06:35;;;;;;;6.85;2.90;;;;;;;2.23;80.95;94375.34;5111558;28;20198;-76
2023/01/31 07:09:02;;;;;;;3.03;1.38;;;;;;;1.73;77.96;94380.06;5111459;28;20641;-74
2023/01/31 07:11:29;;;;;;;3.72;1.83;;;;;;;1.40;78.07;94385.06;5111631;28;20214;-74
2023/01/31 07:13:55;;;;;;;5.10;2.03;;;;;;;1.39;78.59;94391.47;5110873;28;20238;-73
2023/01/31 07:16:24;;;;;;;3.67;1.83;;;;;;;1.43;78.43;94384.53;5105989;28;20229;-75
2023/01/31 07:18:52;;;;;;;5.13;2.75;;;;;;;1.59;78.05;94387.09;5111868;28;20205;-74
2023/01/31 07:21:19;;;;;;;5.55;2.80;;;;;;;1.64;77.83;94393.19;5104821;28;20259;-72
2023/01/31 07:23:45;;;;;;;5.88;3.20;;;;;;;1.48;77.84;94394.38;5103704;28;20205;-73
2023/01/31 07:26:12;;;;;;;4.57;2.67;;;;;;;1.48;77.73;94388.22;5110475;28;20198;-73
2023/01/31 07:28:39;;;;;;;4.18;2.58;;;;;;;1.54;78.05;94392.44;5110582;28;20274;-74
2023/01/31 07:31:06;;;;;;;6.43;3.10;;;;;;;1.52;78.16;94395.41;5104404;28;20210;-74
2023/01/31 07:33:34;;;;;;;4.68;2.67;;;;;;;1.36;78.72;94392.03;5104904;28;20714;-74
2023/01/31 07:36:03;;;;;;;4.13;2.53;;;;;;;1.39;78.56;94396.81;5110677;28;20291;-73
2023/01/31 07:38:30;;;;;;;3.83;2.65;;;;;;;1.43;79.09;94387.19;5098592;28;20206;-75
2023/01/31 07:40:59;;;;;;;2.30;1.77;;;;;;;1.50;79.03;94388.75;5111095;28;20209;-73
2023/01/31 07:43:26;;;;;;;4.30;1.15;;;;;;;1.69;78.74;94389.69;5110906;28;20209;-74
2023/01/31 07:45:54;;;;;;;7.75;2.63;;;;;;;1.61;78.25;94383.06;5101584;28;20202;-74
2023/01/31 07:48:22;;;;;;;10.65;3.17;;;;;;;1.60;78.18;94389.50;5105809;28;20255;-73
2023/01/31 07:50:51;;;;;;;10.00;3.42;;;;;;;1.76;78.54;94390.19;5110514;28;20221;-74
2023/01/31 07:53:18;;;;;;;6.00;2.90;;;;;;;1.75;78.15;94377.91;5109205;28;20197;-74
2023/01/31 07:55:46;;;;;;;4.20;2.70;;;;;;;1.67;78.15;94394.50;5110497;28;20209;-74
2023/01/31 07:58:13;;;;;;;3.35;2.28;;;;;;;1.67;78.51;94381.94;5110477;28;20205;-73
2023/01/31 08:03:32;;;;;;;2.83;2.30;;;;;;;1.62;79.29;94362.53;5110666;28;20330;-75
2023/01/31 08:06:02;;;;;;;4.38;2.88;;;;;;;1.81;79.24;94378.66;5110940;28;20196;-74
2023/01/31 08:08:29;;;;;;;6.47;2.78;;;;;;;1.70;79.57;94386.75;5098196;28;20233;-74
2023/01/31 08:10:55;;;;;;;5.93;2.65;;;;;;;1.64;79.47;94382.50;5110773;28;20205;-74
2023/01/31 08:13:22;;;;;;;4.75;2.33;;;;;;;1.74;79.60;94376.31;5110380;28;20617;-75
2023/01/31 08:15:51;;;;;;;5.65;1.67;;;;;;;1.86;79.40;94379.41;5109050;28;20202;-75
2023/01/31 08:18:18;;;;;;;5.85;2.50;;;;;;;2.12;78.44;94380.81;5110664;28;20201;-75
2023/01/31 08:20:45;;;;;;;8.73;3.35;;;;;;;1.99;78.44;94376.09;5109823;28;20220;-74
2023/01/31 08:23:13;;;;;;;6.15;3.17;;;;;;;2.11;78.50;94370.38;5110923;28;20254;-74
2023/01/31 08:25:40;;;;;;;2.33;1.63;;;;;;;2.06;78.12;94357.06;5110377;28;20198;-75
2023/01/31 08:28:07;;;;;;;4.85;2.58;;;;;;;2.13;77.49;94362.91;5110646;28;20202;-75
2023/01/31 08:30:34;;;;;;;5.50;3.33;;;;;;;2.09;77.12;94362.66;5109530;28;20205;-75
2023/01/31 08:33:01;;;;;;;5.93;2.72;;;;;;;2.20;77.26;94367.91;5109841;28;20197;-75
2023/01/31 08:35:28;;;;;;;5.97;2.33;;;;;;;2.41;76.78;94358.63;5110019;28;20245;-74
2023/01/31 08:37:54;;;;;;;3.08;1.55;;;;;;;2.61;76.41;94361.06;5110051;28;20268;-74
2023/01/31 08:40:23;;;;;;;5.70;2.85;;;;;;;2.57;75.53;94357.38;5109929;28;20656;-74
2023/01/31 08:42:56;;;;;;;3.45;2.22;;;;;;;2.72;75.34;94359.09;5110270;28;20210;-75
2023/01/31 08:45:23;;;;;;;3.92;1.83;;;;;;;2.67;75.33;94357.28;5109229;28;20221;-75
2023/01/31 08:47:54;;;;;;;5.88;2.70;;;;;;;2.75;75.35;94359.31;5109417;28;20680;-74
2023/01/31 08:50:20;;;;;;;6.20;2.97;;;;;;;2.69;75.39;94365.81;5105633;28;20193;-74
2023/01/31 08:52:52;;;;;;;5.10;2.05;;;;;;;2.40;76.37;94351.69;5101565;28;20206;-77
2023/01/31 08:55:18;;;;;;;4.97;2.10;;;;;;;2.46;76.35;94361.25;5110197;28;20227;-74
2023/01/31 08:57:47;;;;;;;2.92;1.88;;;;;;;2.55;76.63;94358.75;5110414;28;20283;-75
2023/01/31 09:00:15;;;;;;;2.72;1.63;;;;;;;2.83;76.12;94357.91;5109607;28;20202;-74
2023/01/31 09:02:41;;;;;;;5.85;2.45;;;;;;;3.01;74.92;94361.69;5109763;28;20251;-75
2023/01/31 09:05:08;;;;;;;5.32;2.90;;;;;;;2.93;74.09;94365.00;5109673;28;20198;-75
2023/01/31 09:07:35;;;;;;;2.05;1.73;;;;;;;2.79;74.71;94371.03;5109542;28;20695;-75
2023/01/31 09:10:02;;;;;;;2.60;1.77;;;;;;;3.02;73.60;94368.63;5095887;28;20254;-74
2023/01/31 09:12:29;;;;;;;4.45;1.88;;;;;;;3.23;72.69;94364.63;5109493;28;20198;-75
2023/01/31 09:14:57;;;;;;;3.55;2.00;;;;;;;3.39;72.38;94363.34;5109264;28;20712;-74
2023/01/31 09:17:24;;;;;;;4.15;2.45;;;;;;;2.94;72.72;94332.59;5109470;28;20713;-77
2023/01/31 09:19:51;;;;;;;4.35;2.28;;;;;;;2.98;73.07;94368.41;5109727;28;20208;-74
2023/01/31 09:22:19;;;;;;;3.80;2.00;;;;;;;2.61;73.63;94354.91;5109770;28;20254;-74
2023/01/31 09:24:46;;;;;;;2.47;1.42;;;;;;;2.68;74.27;94342.03;5109650;28;20205;-75
2023/01/31 09:27:13;;;;;;;3.20;1.38;;;;;;;2.68;73.83;94352.72;5108629;28;20712;-75
2023/01/31 09:29:40;;;;;;;3.45;2.75;;;;;;;2.79;74.07;94359.53;5109426;28;20909;-75
2023/01/31 09:32:08;;;;;;;1.38;1.08;;;;;;;3.25;72.81;94361.66;5109078;28;20201;-74
2023/01/31 09:34:35;;;;;;;3.30;2.00;;;;;;;2.99;72.95;94359.31;5109253;28;20202;-74
2023/01/31 09:37:01;;;;;;;3.13;1.88;;;;;;;3.27;72.42;94351.47;5108782;28;20712;-76
2023/01/31 09:39:28;;;;;;;3.25;1.85;;;;;;;3.17;72.09;94341.66;5109337;28;20201;-76
2023/01/31 09:41:59;;;;;;;3.63;1.85;;;;;;;3.33;72.35;94347.63;5109403;28;20201;-75
2023/01/31 09:44:29;;;;;;;2.42;1.63;;;;;;;3.20;71.67;94323.16;5109266;28;20205;-75
2023/01/31 09:47:00;;;;;;;2.83;1.95;;;;;;;3.18;72.07;94319.19;5108652;28;20190;-75
2023/01/31 09:49:32;;;;;;;4.50;1.98;;;;;;;3.01;72.78;94318.88;5108471;28;20193;-73
2023/01/31 09:52:01;;;;;;;3.97;1.85;;;;;;;3.11;72.58;94330.25;5107934;28;20644;-75
2023/01/31 09:54:33;;;;;;;3.13;1.50;;;;;;;3.13;72.01;94325.41;5108381;28;20197;-74
2023/01/31 09:57:10;;;;;;;1.92;1.40;;;;;;;3.32;72.37;94322.72;5107876;28;20763;-75
2023/01/31 09:59:47;;;;;;;4.03;1.70;;;;;;;3.30;72.16;94324.91;5108876;28;20715;-75
2023/01/31 10:02:45;;;;;;;3.17;1.92;;;;;;;2.94;72.27;94318.44;5108233;28;20254;-75
2023/01/31 10:05:23;;;;;;;1.80;1.33;;;;;;;3.30;71.97;94316.88;5092347;28;20254;-74
2023/01/31 10:07:56;;;;;;;3.00;1.50;;;;;;;3.54;70.30;94312.25;5107299;28;20286;-76
2023/01/31 10:10:33;;;;;;;4.82;1.38;;;;;;;3.55;70.72;94308.47;5097843;28;20189;-75
2023/01/31 10:13:05;;;;;;;2.60;1.88;;;;;;;3.41;71.10;94312.97;5109195;28;20239;-76
2023/01/31 10:15:39;;;;;;;5.05;1.55;;;;;;;3.08;72.59;94308.63;5090501;28;20208;-75
2023/01/31 10:18:10;;;;;;;3.55;1.45;;;;;;;3.01;72.28;94308.16;5109063;28;20213;-75
2023/01/31 10:20:43;;;;;;;1.65;1.20;;;;;;;3.13;72.46;94316.59;5108242;28;20689;-75
2023/01/31 10:23:16;;;;;;;4.32;1.90;;;;;;;3.14;70.65;94324.31;5096192;28;20237;-74
2023/01/31 10:25:50;;;;;;;2.22;1.38;;;;;;;3.49;70.24;94323.03;5111047;28;20772;-74
2023/01/31 10:28:23;;;;;;;2.75;2.00;;;;;;;3.45;69.95;94307.81;5112965;28;20226;-75
2023/01/31 10:30:57;;;;;;;2.78;1.67;;;;;;;3.41;70.23;94318.34;5112898;28;20269;-75
2023/01/31 10:33:32;;;;;;;3.30;2.15;;;;;;;3.07;70.46;94315.06;5112712;28;20265;-75
2023/01/31 10:36:05;;;;;;;2.67;1.55;;;;;;;3.03;70.34;94311.34;5112850;28;20263;-74
2023/01/31 10:38:40;;;;;;;3.40;1.67;;;;;;;3.06;71.21;94316.13;5112679;28;20217;-74
2023/01/31 10:41:14;;;;;;;4.10;1.67;;;;;;;2.99;70.57;94311.16;5112451;28;20727;-75
2023/01/31 10:43:47;;;;;;;2.00;1.33;;;;;;;3.14;71.06;94318.19;5112720;28;20294;-75
2023/01/31 10:46:15;;;;;;;3.53;1.73;;;;;;;3.10;70.89;94317.16;5112830;28;20255;-75
2023/01/31 10:48:44;;;;;;;11.88;6.20;;;;;;;2.98;72.11;94314.13;5112640;28;20216;-74
2023/01/31 10:51:28;;;;;;;3.80;1.60;;;;;;;3.18;71.27;94321.84;5100295;28;20649;-75
2023/01/31 10:54:11;;;;;;;2.17;1.67;;;;;;;3.31;70.85;94317.66;5099693;28;20640;-75
2023/01/31 10:56:42;;;;;;;2.50;1.60;;;;;;;3.29;70.66;94320.63;5112522;28;20200;-74
2023/01/31 10:59:16;;;;;;;1.92;1.48;;;;;;;3.12;71.65;94331.06;5112382;28;20532;-74
2023/01/31 11:01:43;;;;;;;1.95;1.42;;;;;;;2.88;72.19;94327.59;5112232;28;20898;-74
2023/01/31 11:04:24;;;;;;;2.22;1.83;;;;;;;2.77;72.73;94321.59;5111940;28;20703;-75
2023/01/31 11:06:53;;;;;;;2.95;1.45;;;;;;;2.89;72.72;94315.81;5112129;28;20328;-75
2023/01/31 11:09:22;;;;;;;3.30;1.60;;;;;;;2.93;72.81;94327.53;5111817;28;20205;-75
2023/01/31 11:11:57;;;;;;;1.88;1.42;;;;;;;2.95;73.05;94325.38;5111417;28;20201;-75
2023/01/31 11:14:24;;;;;;;2.67;2.05;;;;;;;2.65;73.96;94311.31;5111537;28;20209;-77
2023/01/31 11:17:02;;;;;;;1.85;1.42;;;;;;;2.69;74.52;94328.38;5111473;28;20777;-74
2023/01/31 11:19:39;;;;;;;1.40;1.27;;;;;;;2.70;74.99;94319.28;5111326;28;20193;-76
2023/01/31 11:22:23;;;;;;;1.95;1.50;;;;;;;3.02;74.39;94333.84;5111672;28;20205;-78
2023/01/31 11:24:55;;;;;;;3.63;2.22;;;;;;;2.56;74.78;94307.69;5111768;28;20182;-74
2023/01/31 11:27:26;;;;;;;2.67;1.23;;;;;;;2.67;75.49;94335.88;5111595;28;20194;-74
2023/01/31 11:29:56;;;;;;;3.20;2.15;;;;;;;2.46;76.20;94334.53;5111303;28;20194;-75
2023/01/31 11:32:26;;;;;;;1.02;0.93;;;;;;;2.44;76.86;94339.34;5111347;28;20243;-76
2023/01/31 11:35:08;;;;;;;3.55;2.17;;;;;;;2.24;76.97;94315.50;5112144;28;20270;-81
2023/01/31 11:37:51;;;;;;;1.88;1.52;;;;;;;2.22;78.19;94339.81;5110726;28;20224;-75
2023/01/31 11:40:26;;;;;;;1.40;1.30;;;;;;;2.21;78.62;94326.75;5111427;28;20190;-74
2023/01/31 11:42:54;;;;;;;1.77;1.50;;;;;;;2.36;78.08;94326.59;5111687;28;20199;-75
2023/01/31 11:45:23;;;;;;;2.33;1.15;;;;;;;2.46;77.59;94321.16;5111541;28;20213;-75
2023/01/31 11:47:51;;;;;;;1.52;1.35;;;;;;;2.51;77.73;94331.78;5111572;28;20214;-74
2023/01/31 11:50:20;;;;;;;2.05;1.40;;;;;;;2.45;77.77;94332.94;5111248;28;20273;-76
2023/01/31 11:52:55;;;;;;;1.48;1.23;;;;;;;2.42;77.94;94323.59;5111220;28;20255;-74
2023/01/31 11:55:21;;;;;;;1.63;1.52;;;;;;;2.22;79.49;94313.09;5111045;28;20194;-73
2023/01/31 11:57:56;;;;;;;2.35;1.67;;;;;;;2.12;79.88;94324.69;5111181;28;20225;-74
2023/01/31 12:00:25;;;;;;;1.95;1.52;;;;;;;2.09;79.94;94333.28;5098006;28;20197;-74